Time;durP1;ratioP1;P1;durP2;ratioP2;P2;SDS_P1;SDS_P2;PMS_P1;PMS_P2;Temp;Humidity;BMP_temperature;BMP_pressure;BME280_temperature;BME280_humidity;BME280_pressure;Samples;Min_cycle;Max_cycle;Signal;HPM_P1;HPM_P2
2023/09/09 00:00:41;;;;;;;9.23;7.70;;;;;;;;;;6289366;22;20417;-78
2023/09/09 00:03:10;;;;;;;9.27;7.20;;;;;;;;;;6289602;22;20439;-78
2023/09/09 00:05:38;;;;;;;11.00;9.13;;;;;;;;;;6289490;22;20523;-79
2023/09/09 00:08:07;;;;;;;10.93;7.60;;;;;;;;;;6286157;22;20418;-79
2023/09/09 00:10:39;;;;;;;12.53;7.33;;;;;;;;;;6288470;22;20657;-80
2023/09/09 00:13:09;;;;;;;11.13;8.57;;;;;;;;;;6288398;22;20669;-78
2023/09/09 00:15:37;;;;;;;9.83;7.90;;;;;;;;;;6286830;22;20451;-79
2023/09/09 00:18:05;;;;;;;11.87;9.60;;;;;;;;;;6290796;22;20417;-80
2023/09/09 00:20:35;;;;;;;10.10;8.60;;;;;;;;;;6288157;22;20692;-79
2023/09/09 00:23:07;;;;;;;11.70;9.37;;;;;;;;;;6290210;22;20479;-77
2023/09/09 00:25:36;;;;;;;10.20;7.07;;;;;;;;;;6285332;22;20428;-78
2023/09/09 00:28:06;;;;;;;14.60;8.73;;;;;;;;;;6289508;22;20427;-79
2023/09/09 00:30:35;;;;;;;12.60;8.90;;;;;;;;;;6289069;22;20419;-78
2023/09/09 00:33:07;;;;;;;9.83;7.50;;;;;;;;;;6288835;22;20427;-78
2023/09/09 00:38:39;;;;;;;11.27;7.70;;;;;;;;;;6290202;22;20407;-78
2023/09/09 00:41:44;;;;;;;11.87;7.67;;;;;;;;;;6291800;22;20412;-78
2023/09/09 00:44:31;;;;;;;10.20;7.67;;;;;;;;;;6194899;22;21057;-75
2023/09/09 00:47:35;;;;;;;10.00;7.10;;;;;;;;;;6277885;22;20422;-74
2023/09/09 00:50:23;;;;;;;9.90;7.50;;;;;;;;;;6279638;22;20426;-75
2023/09/09 00:53:26;;;;;;;12.20;7.07;;;;;;;;;;6278900;22;20416;-76
2023/09/09 01:01:08;;;;;;;9.23;7.13;;;;;;;;;;6249976;23;20516;-74
2023/09/09 01:03:36;;;;;;;10.70;7.93;;;;;;;;;;6249250;23;20201;-74
2023/09/09 01:06:14;;;;;;;12.83;9.23;;;;;;;;;;6246305;23;20459;-75
2023/09/09 01:08:59;;;;;;;13.93;8.70;;;;;;;;;;6248290;22;20507;-76
2023/09/09 01:11:31;;;;;;;13.73;9.20;;;;;;;;;;6248019;23;20453;-75
2023/09/09 01:14:04;;;;;;;9.90;7.10;;;;;;;;;;6248906;23;20420;-75
2023/09/09 01:16:33;;;;;;;9.40;6.80;;;;;;;;;;6248493;23;20424;-76
2023/09/09 01:19:05;;;;;;;10.40;7.37;;;;;;;;;;6248553;23;20428;-76
2023/09/09 01:21:41;;;;;;;10.97;7.37;;;;;;;;;;6248528;22;20439;-75
2023/09/09 01:24:30;;;;;;;9.23;7.80;;;;;;;;;;6246008;23;20551;-77
2023/09/09 01:27:07;;;;;;;9.53;7.53;;;;;;;;;;6222053;23;20421;-78
2023/09/09 01:29:39;;;;;;;11.37;8.40;;;;;;;;;;6279197;22;20504;-75
2023/09/09 01:32:07;;;;;;;11.73;8.40;;;;;;;;;;6280438;22;20448;-75
2023/09/09 01:34:39;;;;;;;10.77;8.17;;;;;;;;;;6278995;22;20413;-75
2023/09/09 01:37:11;;;;;;;9.60;8.00;;;;;;;;;;6279118;22;20412;-75
2023/09/09 01:39:41;;;;;;;11.63;8.80;;;;;;;;;;6279617;22;20405;-75
2023/09/09 01:58:31;;;;;;;13.70;7.90;;;;;;;;;;6271181;22;20416;-75
2023/09/09 02:01:05;;;;;;;11.30;8.73;;;;;;;;;;6278036;22;20473;-75
2023/09/09 02:03:35;;;;;;;10.27;7.87;;;;;;;;;;6278775;22;20446;-75
2023/09/09 02:11:28;;;;;;;10.17;7.20;;;;;;;;;;6277327;22;20905;-75
2023/09/09 02:14:09;;;;;;;11.90;7.73;;;;;;;;;;6279371;22;20840;-76
2023/09/09 02:19:42;;;;;;;9.17;7.63;;;;;;;;;;6276797;22;20902;-75
2023/09/09 02:22:12;;;;;;;13.07;8.57;;;;;;;;;;6282857;22;20420;-75
2023/09/09 02:25:00;;;;;;;11.70;8.10;;;;;;;;;;6281233;22;20447;-75
2023/09/09 02:27:33;;;;;;;8.93;7.60;;;;;;;;;;6284711;22;20404;-76
2023/09/09 02:30:09;;;;;;;10.87;8.20;;;;;;;;;;6283880;22;20455;-76
2023/09/09 02:32:43;;;;;;;9.57;8.10;;;;;;;;;;6284711;22;20906;-75
2023/09/09 02:35:13;;;;;;;9.23;7.37;;;;;;;;;;6282680;22;20757;-76
2023/09/09 02:37:45;;;;;;;10.50;8.37;;;;;;;;;;6284000;22;20470;-76
2023/09/09 02:43:25;;;;;;;10.50;6.80;;;;;;;;;;6293576;22;20420;-80
2023/09/09 02:45:55;;;;;;;8.70;6.57;;;;;;;;;;6293025;22;20418;-78
2023/09/09 02:48:23;;;;;;;10.30;7.00;;;;;;;;;;6293958;22;20376;-78
2023/09/09 02:50:52;;;;;;;10.23;7.20;;;;;;;;;;6291467;22;20397;-78
2023/09/09 02:53:21;;;;;;;9.57;7.50;;;;;;;;;;6291483;22;20412;-79
2023/09/09 02:55:50;;;;;;;10.40;6.93;;;;;;;;;;6293420;22;20423;-79
2023/09/09 02:58:18;;;;;;;9.30;7.10;;;;;;;;;;6294933;22;20515;-79
2023/09/09 03:00:47;;;;;;;11.40;7.23;;;;;;;;;;6290245;22;20781;-78
2023/09/09 03:03:20;;;;;;;10.00;6.93;;;;;;;;;;6290117;22;20412;-79
2023/09/09 03:05:48;;;;;;;10.93;7.67;;;;;;;;;;6294113;22;20722;-79
2023/09/09 03:08:16;;;;;;;8.67;7.10;;;;;;;;;;6292165;22;20481;-79
2023/09/09 03:10:45;;;;;;;11.33;8.07;;;;;;;;;;6290128;22;20836;-79
2023/09/09 03:13:13;;;;;;;9.53;7.60;;;;;;;;;;6285793;22;20412;-79
2023/09/09 03:15:41;;;;;;;10.23;7.33;;;;;;;;;;6290292;22;20412;-81
2023/09/09 03:18:09;;;;;;;12.73;7.37;;;;;;;;;;6291234;22;20393;-80
2023/09/09 03:20:39;;;;;;;10.30;8.00;;;;;;;;;;6292194;22;20481;-78
2023/09/09 03:23:08;;;;;;;10.63;8.63;;;;;;;;;;6292210;22;20412;-78
2023/09/09 03:25:36;;;;;;;10.10;8.13;;;;;;;;;;6286685;22;20471;-78
2023/09/09 03:28:05;;;;;;;10.90;8.03;;;;;;;;;;6284542;22;20848;-79
2023/09/09 03:30:53;;;;;;;10.00;8.30;;;;;;;;;;6287823;22;20389;-79
2023/09/09 03:36:27;;;;;;;10.63;8.10;;;;;;;;;;6288259;22;20434;-79
2023/09/09 03:39:01;;;;;;;9.50;7.83;;;;;;;;;;6288123;22;20412;-80
2023/09/09 03:41:42;;;;;;;11.90;8.90;;;;;;;;;;6293344;22;20411;-79
2023/09/09 03:49:59;;;;;;;12.13;8.50;;;;;;;;;;6254157;23;20488;-77
2023/09/09 03:52:29;;;;;;;9.90;7.33;;;;;;;;;;6240949;22;20436;-76
2023/09/09 03:55:07;;;;;;;11.40;8.90;;;;;;;;;;6270802;22;20474;-76
2023/09/09 03:57:35;;;;;;;12.90;8.30;;;;;;;;;;6280818;22;20404;-76
2023/09/09 04:00:13;;;;;;;11.50;7.10;;;;;;;;;;6281077;22;20424;-76
2023/09/09 04:02:53;;;;;;;10.10;7.73;;;;;;;;;;6279533;22;20443;-75
2023/09/09 04:05:25;;;;;;;10.50;7.70;;;;;;;;;;6278537;22;20475;-77
2023/09/09 04:08:08;;;;;;;10.57;8.40;;;;;;;;;;6280454;22;20454;-77
2023/09/09 04:10:54;;;;;;;11.67;8.00;;;;;;;;;;6283732;22;20499;-75
2023/09/09 04:13:32;;;;;;;15.90;8.63;;;;;;;;;;6280017;22;20412;-76
2023/09/09 04:16:18;;;;;;;10.90;7.80;;;;;;;;;;6282687;22;21001;-77
2023/09/09 04:19:11;;;;;;;10.27;7.33;;;;;;;;;;6284128;22;20478;-77
2023/09/09 04:22:10;;;;;;;10.60;8.70;;;;;;;;;;6271408;22;20491;-76
2023/09/09 04:25:27;;;;;;;12.60;7.83;;;;;;;;;;6275726;22;20474;-76
2023/09/09 04:28:11;;;;;;;11.10;7.80;;;;;;;;;;6283098;22;20834;-75
2023/09/09 04:30:49;;;;;;;11.50;8.00;;;;;;;;;;6284810;22;20444;-77
2023/09/09 04:33:25;;;;;;;12.43;8.43;;;;;;;;;;6280973;22;20416;-76
2023/09/09 04:46:35;;;;;;;12.20;8.90;;;;;;;;;;6249788;23;20656;-76
2023/09/09 04:49:18;;;;;;;12.93;8.50;;;;;;;;;;6282016;22;20389;-77
2023/09/09 04:51:48;;;;;;;11.47;8.57;;;;;;;;;;6281565;22;20393;-76
2023/09/09 04:54:18;;;;;;;11.67;8.90;;;;;;;;;;6284816;22;20432;-77
2023/09/09 04:57:04;;;;;;;11.23;8.83;;;;;;;;;;6282080;22;21276;-77
2023/09/09 04:59:38;;;;;;;11.20;8.33;;;;;;;;;;6281658;22;20427;-77
2023/09/09 05:02:08;;;;;;;13.13;8.30;;;;;;;;;;6285862;22;20404;-77
2023/09/09 05:04:42;;;;;;;12.13;8.03;;;;;;;;;;6281891;22;20448;-76
2023/09/09 05:07:17;;;;;;;13.10;9.37;;;;;;;;;;6286665;22;20405;-76
2023/09/09 05:09:54;;;;;;;12.47;8.70;;;;;;;;;;6281467;22;20511;-76
2023/09/09 05:12:34;;;;;;;15.13;9.40;;;;;;;;;;6282084;22;20416;-77
2023/09/09 05:15:30;;;;;;;13.80;8.57;;;;;;;;;;6273560;22;20495;-76
2023/09/09 05:18:20;;;;;;;10.97;8.13;;;;;;;;;;6249391;23;20901;-76
2023/09/09 05:20:50;;;;;;;13.90;8.77;;;;;;;;;;6248931;23;20846;-77
2023/09/09 05:23:23;;;;;;;14.13;8.57;;;;;;;;;;6249407;23;20796;-77
2023/09/09 05:25:51;;;;;;;11.90;7.53;;;;;;;;;;6251303;23;20730;-76
2023/09/09 05:28:29;;;;;;;12.53;8.47;;;;;;;;;;6274439;22;20501;-76
2023/09/09 05:31:19;;;;;;;;;;;;;;;;;;;;;
2023/09/09 05:33:48;;;;;;;11.60;8.17;;;;;;;;;;6281182;22;20406;-75
2023/09/09 05:36:25;;;;;;;10.87;8.40;;;;;;;;;;6277461;22;20424;-77
2023/09/09 05:39:00;;;;;;;11.60;8.60;;;;;;;;;;6283719;22;20420;-76
2023/09/09 05:41:39;;;;;;;13.40;8.80;;;;;;;;;;6278755;22;20450;-75
2023/09/09 05:44:13;;;;;;;13.17;9.57;;;;;;;;;;6283275;22;20432;-76
2023/09/09 05:46:55;;;;;;;12.60;8.97;;;;;;;;;;6281029;22;20467;-76
2023/09/09 05:49:37;;;;;;;11.30;8.57;;;;;;;;;;6276677;22;20468;-76
2023/09/09 05:52:24;;;;;;;12.83;9.37;;;;;;;;;;6274435;22;20833;-78
2023/09/09 05:55:18;;;;;;;13.73;9.07;;;;;;;;;;6279712;22;20443;-77
2023/09/09 05:57:52;;;;;;;10.27;8.17;;;;;;;;;;6279635;22;20434;-75
2023/09/09 06:00:36;;;;;;;11.97;8.70;;;;;;;;;;6281973;22;20412;-75
2023/09/09 06:06:16;;;;;;;11.93;8.00;;;;;;;;;;6274270;22;20463;-76
2023/09/09 06:09:12;;;;;;;12.27;8.97;;;;;;;;;;6277138;22;20826;-75
2023/09/09 06:17:54;;;;;;;14.23;8.60;;;;;;;;;;6206041;22;20759;-75
2023/09/09 06:20:42;;;;;;;11.97;9.30;;;;;;;;;;6281920;22;20911;-76
2023/09/09 06:29:01;;;;;;;13.37;8.87;;;;;;;;;;6277626;22;20420;-75
2023/09/09 06:34:31;;;;;;;11.80;8.97;;;;;;;;;;6251994;22;20507;-77
2023/09/09 07:04:25;;;;;;;9.83;8.50;;;;;;;;;;6215704;23;20417;-77
2023/09/09 07:27:05;;;;;;;10.83;8.60;;;;;;;;;;6282188;22;20205;-78
2023/09/09 07:29:34;;;;;;;10.83;7.87;;;;;;;;;;6286571;22;20427;-79
2023/09/09 07:32:02;;;;;;;11.23;8.47;;;;;;;;;;6286908;22;20470;-79
2023/09/09 07:34:32;;;;;;;10.03;8.67;;;;;;;;;;6284281;22;20508;-78
2023/09/09 07:37:03;;;;;;;8.87;7.93;;;;;;;;;;6281295;22;20412;-78
2023/09/09 07:39:31;;;;;;;10.83;8.30;;;;;;;;;;6276509;22;20419;-77
2023/09/09 07:42:00;;;;;;;15.13;10.40;;;;;;;;;;6282111;22;20501;-78
2023/09/09 07:44:35;;;;;;;10.40;7.87;;;;;;;;;;6278250;22;20424;-78
2023/09/09 07:47:08;;;;;;;10.67;7.70;;;;;;;;;;6277096;22;20647;-77
2023/09/09 07:52:20;;;;;;;11.93;7.67;;;;;;;;;;6248062;22;20431;-78
2023/09/09 07:54:50;;;;;;;13.03;8.97;;;;;;;;;;6276969;22;20799;-79
2023/09/09 07:57:28;;;;;;;9.57;7.33;;;;;;;;;;6286270;22;20393;-78
2023/09/09 08:00:09;;;;;;;10.50;9.50;;;;;;;;;;6284977;22;20438;-77
2023/09/09 08:02:39;;;;;;;10.10;7.83;;;;;;;;;;6283936;22;20412;-79
2023/09/09 10:39:34;;;;;;;7.90;6.40;;;;;;;;;;6154080;23;20475;-75
2023/09/09 11:07:13;;;;;;;7.70;6.40;;;;;;;;;;6217537;23;20220;-75
2023/09/09 11:13:45;;;;;;;10.00;6.60;;;;;;;;;;6069873;23;20429;-77
2023/09/09 11:16:41;;;;;;;7.77;6.97;;;;;;;;;;6192912;23;20461;-76
2023/09/09 11:25:11;;;;;;;10.80;7.20;;;;;;;;;;6222708;23;20507;-74
2023/09/09 11:31:25;;;;;;;8.77;6.43;;;;;;;;;;6210893;23;20414;-75
2023/09/09 11:37:04;;;;;;;8.90;7.30;;;;;;;;;;6220436;23;20426;-76
2023/09/09 11:39:54;;;;;;;8.47;6.83;;;;;;;;;;6275624;22;20448;-76
2023/09/09 11:45:23;;;;;;;11.53;7.00;;;;;;;;;;6244868;23;20441;-76
2023/09/09 11:48:02;;;;;;;7.70;6.17;;;;;;;;;;6252719;23;20410;-75
2023/09/09 11:53:17;;;;;;;9.27;6.00;;;;;;;;;;6274812;22;20412;-76
2023/09/09 11:55:52;;;;;;;6.73;6.03;;;;;;;;;;6276970;22;20409;-75
2023/09/09 12:10:29;;;;;;;;;;;;;;;;;;;;;
2023/09/09 12:13:14;;;;;;;5.10;4.03;;;;;;;;;;6272012;22;20201;-76
2023/09/09 12:15:56;;;;;;;5.40;3.77;;;;;;;;;;6274317;22;20898;-77
2023/09/09 12:18:39;;;;;;;4.33;3.70;;;;;;;;;;6273322;22;20404;-74
2023/09/09 12:21:31;;;;;;;4.90;3.80;;;;;;;;;;6276183;22;20412;-75
2023/09/09 12:30:32;;;;;;;6.73;4.57;;;;;;;;;;6255518;22;20849;-75
2023/09/09 12:33:20;;;;;;;6.80;4.37;;;;;;;;;;6275593;22;21083;-76
2023/09/09 12:47:12;;;;;;;5.87;3.87;;;;;;;;;;6271842;22;20233;-76
2023/09/09 13:05:50;;;;;;;4.73;3.93;;;;;;;;;;6269863;22;20412;-77
2023/09/09 13:20:46;;;;;;;6.30;4.00;;;;;;;;;;6234888;23;20425;-77
2023/09/09 13:35:37;;;;;;;5.33;3.80;;;;;;;;;;6238163;23;20421;-79
2023/09/09 13:38:48;;;;;;;11.43;3.93;;;;;;;;;;6246576;23;20443;-76
2023/09/09 13:53:24;;;;;;;9.03;4.70;;;;;;;;;;6246635;22;20412;-78
2023/09/09 13:56:23;;;;;;;;;;;;;;;;;;;;;
2023/09/09 14:34:43;;;;;;;5.20;3.27;;;;;;;;;;6200717;23;20179;-76
2023/09/09 14:58:57;;;;;;;;;;;;;;;;;;;;;
2023/09/09 15:13:38;;;;;;;;;;;;;;;;;;;;;
2023/09/09 15:31:05;;;;;;;4.53;3.50;;;;;;;;;;6243706;22;20486;-77
2023/09/09 15:57:48;;;;;;;4.47;3.90;;;;;;;;;;6245765;23;20389;-76
2023/09/09 16:16:49;;;;;;;6.40;4.70;;;;;;;;;;6190497;23;20235;-76
2023/09/09 16:25:24;;;;;;;6.10;5.13;;;;;;;;;;6238282;23;20471;-77
2023/09/09 16:36:41;;;;;;;6.43;5.00;;;;;;;;;;6092097;23;20508;-77
2023/09/09 16:39:19;;;;;;;6.97;5.53;;;;;;;;;;6102104;23;20643;-76
2023/09/09 16:45:08;;;;;;;6.67;5.53;;;;;;;;;;6098802;23;20397;-77
2023/09/09 17:00:10;;;;;;;7.50;6.17;;;;;;;;;;6212704;23;20480;-77
2023/09/09 17:03:17;;;;;;;7.63;6.17;;;;;;;;;;6228524;23;20499;-77
2023/09/09 17:06:26;;;;;;;9.67;6.47;;;;;;;;;;6204879;23;20464;-77
2023/09/09 17:23:49;;;;;;;;;;;;;;;;;;;;;
2023/09/09 18:14:19;;;;;;;18.27;10.87;;;;;;;;;;6150682;22;22244;31
2023/09/09 18:16:54;;;;;;;24.73;14.97;;;;;;;;;;6194638;23;20449;-80
2023/09/09 18:19:23;;;;;;;27.63;14.57;;;;;;;;;;6198487;23;20498;-79
2023/09/09 18:21:51;;;;;;;34.63;15.03;;;;;;;;;;6190877;23;20453;-81
2023/09/09 18:24:19;;;;;;;28.90;16.60;;;;;;;;;;6189884;23;20403;-78
2023/09/09 18:26:48;;;;;;;28.83;14.83;;;;;;;;;;6193993;23;20517;-80
2023/09/09 18:29:27;;;;;;;14.67;11.37;;;;;;;;;;6190176;23;20403;-80
2023/09/09 18:35:01;;;;;;;25.70;13.20;;;;;;;;;;6212447;23;20428;-79
2023/09/09 18:37:44;;;;;;;14.20;9.80;;;;;;;;;;6194832;23;20449;-79
2023/09/09 18:58:22;;;;;;;16.33;11.30;;;;;;;;;;6222532;23;20434;-80
2023/09/09 21:33:11;;;;;;;17.63;15.83;;;;;;;;;;6243131;23;20526;-82
2023/09/09 21:41:34;;;;;;;20.07;13.37;;;;;;;;;;6161201;23;20408;-76
2023/09/09 21:44:39;;;;;;;12.57;11.03;;;;;;;;;;6247944;22;20425;-77
2023/09/09 23:37:26;;;;;;;12.63;11.33;;;;;;;;;;6197366;23;20181;-80
2023/09/09 23:52:31;;;;;;;;;;;;;;;;;;;;;
2023/09/09 23:55:41;;;;;;;12.67;9.13;;;;;;;;;;6256625;22;20427;-80
